createdAt,value
2023-05-04T00:06:20.107Z,7.63
2023-05-04T00:09:52.116Z,9.38
2023-05-04T00:13:30.909Z,13.13
2023-05-04T00:17:14.193Z,10.43
2023-05-04T00:20:53.302Z,11.45
2023-05-04T00:24:19.452Z,9.45
2023-05-04T00:29:17.773Z,10.65
2023-05-04T00:31:59.680Z,8.52
2023-05-04T00:36:05.964Z,9.20
2023-05-04T00:40:02.077Z,10.15
2023-05-04T00:43:22.592Z,12.43
2023-05-04T00:46:42.525Z,8.20
2023-05-04T00:50:17.420Z,12.90
2023-05-04T00:54:01.043Z,8.40
2023-05-04T00:57:06.125Z,9.32
2023-05-04T01:00:28.227Z,8.35
2023-05-04T01:04:01.819Z,9.63
2023-05-04T01:07:48.523Z,8.80
2023-05-04T01:11:12.333Z,8.52
2023-05-04T01:18:32.328Z,10.00
2023-05-04T01:20:49.583Z,11.68
2023-05-04T01:21:51.417Z,8.88
2023-05-04T01:26:08.134Z,13.57
2023-05-04T01:33:16.940Z,11.85
2023-05-04T01:36:22.312Z,12.95
2023-05-04T01:39:56.873Z,12.25
2023-05-04T01:43:37.583Z,10.90
2023-05-04T01:47:41.921Z,11.80
2023-05-04T01:51:49.998Z,11.82
2023-05-04T01:55:52.372Z,14.63
2023-05-04T01:59:50.903Z,14.25
2023-05-04T02:03:19.080Z,13.85
2023-05-04T02:06:56.235Z,13.18
2023-05-04T02:14:11.820Z,12.15
2023-05-04T02:19:02.063Z,14.88
2023-05-04T02:24:41.444Z,10.63
2023-05-04T02:28:27.802Z,10.50
2023-05-04T02:31:46.693Z,11.70
2023-05-04T02:43:18.189Z,14.10
2023-05-04T02:50:29.249Z,14.52
2023-05-04T02:54:01.625Z,12.60
2023-05-04T03:01:35.035Z,14.63
2023-05-04T03:05:11.987Z,14.10
2023-05-04T03:08:21.567Z,16.58
2023-05-04T03:11:53.693Z,13.32
2023-05-04T03:15:33.494Z,15.77
2023-05-04T03:22:25.555Z,12.30
2023-05-04T03:33:26.409Z,13.85
2023-05-04T03:41:37.464Z,13.18
2023-05-04T03:49:30.283Z,15.75
2023-05-04T03:56:09.091Z,14.93
2023-05-04T03:59:39.328Z,15.48
2023-05-04T04:03:49.852Z,15.70
2023-05-04T04:06:47.716Z,13.88
2023-05-04T04:13:26.968Z,14.32
2023-05-04T04:17:05.498Z,14.77
2023-05-04T04:24:54.625Z,16.35
2023-05-04T04:29:18.324Z,20.35
2023-05-04T04:33:32.498Z,16.20
2023-05-04T04:43:51.713Z,15.77
2023-05-04T04:47:47.956Z,15.85
2023-05-04T04:52:29.310Z,16.33
2023-05-04T04:56:26.981Z,16.88
2023-05-04T05:07:38.394Z,14.82
2023-05-04T05:10:17.325Z,16.23
2023-05-04T05:11:09.421Z,18.33
2023-05-04T05:18:15.835Z,23.75
2023-05-04T05:22:17.979Z,14.98
2023-05-04T05:25:48.537Z,14.43
2023-05-04T05:32:15.532Z,17.98
2023-05-04T05:36:26.402Z,13.18
2023-05-04T05:38:45.517Z,19.08
2023-05-04T05:41:24.434Z,12.30
2023-05-04T05:43:57.820Z,15.57
2023-05-04T05:47:56.468Z,13.77
2023-05-04T05:52:05.562Z,11.73
2023-05-04T05:55:41.602Z,11.55
2023-05-04T06:10:17.616Z,6.55
2023-05-04T06:15:11.562Z,11.73
2023-05-04T06:22:42.442Z,10.85
2023-05-04T06:26:22.497Z,9.27
2023-05-04T06:29:58.836Z,8.52
2023-05-04T06:34:20.241Z,10.68
2023-05-04T06:38:00.638Z,11.73
2023-05-04T06:44:35.832Z,10.27
2023-05-04T06:51:43.298Z,9.40
2023-05-04T06:55:35.149Z,7.80
2023-05-04T06:59:30.740Z,9.35
2023-05-04T07:07:14.045Z,9.20
2023-05-04T07:21:54.853Z,8.32
2023-05-04T07:23:23.077Z,12.88
2023-05-04T07:26:27.261Z,8.30
2023-05-04T07:29:43.666Z,8.93
2023-05-04T07:41:08.054Z,9.35
2023-05-04T07:44:29.792Z,7.82
2023-05-04T07:55:22.239Z,8.38
2023-05-04T07:58:42.662Z,10.45
2023-05-04T08:05:49.149Z,7.38
2023-05-04T08:14:05.230Z,7.30
2023-05-04T08:22:17.169Z,7.55
2023-05-04T08:29:54.779Z,6.40
2023-05-04T08:34:01.638Z,5.45
2023-05-04T08:38:10.002Z,6.60
2023-05-04T08:45:03.344Z,8.45
2023-05-04T08:52:20.179Z,11.93
2023-05-04T09:00:09.182Z,6.22
2023-05-04T09:03:13.202Z,5.35
2023-05-04T09:07:02.393Z,9.23
2023-05-04T09:10:29.869Z,4.45
2023-05-04T09:13:36.984Z,4.75
2023-05-04T09:17:18.202Z,6.43
2023-05-04T09:24:17.792Z,5.00
2023-05-04T09:27:51.450Z,4.55
2023-05-04T09:38:36.829Z,3.67
2023-05-04T09:46:19.845Z,6.78
2023-05-04T09:50:41.734Z,5.97
2023-05-04T09:54:56.906Z,4.78
2023-05-04T10:02:29.150Z,5.88
2023-05-04T10:03:04.673Z,4.78
2023-05-04T10:07:00.963Z,7.35
2023-05-04T10:14:38.069Z,5.25
2023-05-04T10:18:40.622Z,7.15
2023-05-04T10:22:25.921Z,4.30
2023-05-04T10:26:25.138Z,5.68
2023-05-04T10:30:12.399Z,4.90
2023-05-04T10:33:41.737Z,8.05
2023-05-04T10:37:19.766Z,3.90
2023-05-04T10:40:39.022Z,5.30
2023-05-04T10:44:06.915Z,4.57
2023-05-04T10:51:35.612Z,4.93
2023-05-04T11:00:31.002Z,6.05
2023-05-04T11:02:57.704Z,5.22
2023-05-04T11:06:45.388Z,7.88
2023-05-04T11:10:39.065Z,6.55
2023-05-04T11:14:00.169Z,5.20
2023-05-04T11:22:59.562Z,10.00
2023-05-04T11:25:33.374Z,10.25
2023-05-04T11:28:01.950Z,6.03
2023-05-04T11:30:35.732Z,4.80
2023-05-04T11:33:13.037Z,5.45
2023-05-04T11:35:43.707Z,5.35
2023-05-04T11:38:13.338Z,6.03
2023-05-04T11:40:49.800Z,5.93
2023-05-04T11:43:18.955Z,5.07
2023-05-04T11:45:50.536Z,6.03
2023-05-04T11:48:19.086Z,5.20
2023-05-04T11:50:48.410Z,7.18
2023-05-04T11:53:21.637Z,5.88
2023-05-04T11:55:50.454Z,4.70
2023-05-04T11:58:25.714Z,6.72
2023-05-04T12:00:58.535Z,5.40
2023-05-04T12:03:43.290Z,7.85
2023-05-04T12:09:19.233Z,7.07
2023-05-04T12:11:56.323Z,4.68
2023-05-04T12:14:28.405Z,6.32
2023-05-04T12:17:08.035Z,5.60
2023-05-04T12:19:51.456Z,6.38
2023-05-04T12:22:27.037Z,8.00
2023-05-04T12:24:55.449Z,4.57
2023-05-04T12:27:23.774Z,7.95
2023-05-04T12:29:55.182Z,5.05
2023-05-04T12:32:23.520Z,5.38
2023-05-04T12:34:53.228Z,6.22
2023-05-04T12:37:23.790Z,4.28
2023-05-04T12:39:53.305Z,5.68
2023-05-04T12:42:21.621Z,13.00
2023-05-04T12:44:49.999Z,20.23
2023-05-04T12:47:20.807Z,9.00
2023-05-04T12:49:49.049Z,8.57
2023-05-04T12:52:19.684Z,9.40
2023-05-04T12:54:47.944Z,6.78
2023-05-04T12:57:16.509Z,7.72
2023-05-04T12:59:44.973Z,5.28
2023-05-04T13:02:13.322Z,12.00
2023-05-04T13:04:41.945Z,5.90
2023-05-04T13:07:10.764Z,7.65
2023-05-04T13:09:40.451Z,6.05
2023-05-04T13:12:09.070Z,6.13
2023-05-04T13:14:39.951Z,4.95
2023-05-04T13:17:08.799Z,6.47
2023-05-04T13:19:37.306Z,5.70
2023-05-04T13:22:05.970Z,6.00
2023-05-04T13:24:34.312Z,6.63
2023-05-04T13:27:04.052Z,5.95
2023-05-04T13:29:32.472Z,4.85
2023-05-04T13:32:00.921Z,4.32
2023-05-04T13:34:29.357Z,4.18
2023-05-04T13:36:57.682Z,4.60
2023-05-04T13:39:27.952Z,4.60
2023-05-04T13:41:56.517Z,8.38
2023-05-04T13:44:26.159Z,5.53
2023-05-04T13:46:54.563Z,6.07
2023-05-04T13:49:22.813Z,8.07
2023-05-04T13:51:51.043Z,9.55
2023-05-04T13:54:19.357Z,6.35
2023-05-04T13:56:48.564Z,6.40
2023-05-04T13:59:16.928Z,4.50
2023-05-04T14:01:46.591Z,4.30
2023-05-04T14:04:14.863Z,7.20
2023-05-04T14:06:43.344Z,5.60
2023-05-04T14:09:11.693Z,3.65
2023-05-04T14:11:40.010Z,3.85
2023-05-04T14:14:08.769Z,7.22
2023-05-04T14:16:37.661Z,4.55
2023-05-04T14:19:07.448Z,3.47
2023-05-04T14:21:37.022Z,2.83
2023-05-04T14:24:05.663Z,2.75
2023-05-04T14:26:34.236Z,6.82
2023-05-04T14:29:02.660Z,3.35
2023-05-04T14:31:31.234Z,3.35
2023-05-04T14:33:59.659Z,4.53
2023-05-04T14:36:29.404Z,2.05
2023-05-04T14:39:00.807Z,2.70
2023-05-04T14:41:33.579Z,6.18
2023-05-04T14:44:02.100Z,3.28
2023-05-04T14:46:30.990Z,2.10
2023-05-04T14:49:00.163Z,2.75
2023-05-04T14:51:32.335Z,7.07
2023-05-04T14:54:01.099Z,6.32
2023-05-04T14:56:29.402Z,3.47
2023-05-04T14:58:57.905Z,3.25
2023-05-04T15:03:03.689Z,1.88
2023-05-04T15:06:46.993Z,2.65
2023-05-04T15:18:11.180Z,3.00
2023-05-04T15:21:29.718Z,1.75
2023-05-04T15:24:30.817Z,2.53
2023-05-04T15:32:30.441Z,3.78
2023-05-04T15:35:53.715Z,3.08
2023-05-04T15:49:47.919Z,3.13
2023-05-04T15:53:32.477Z,2.50
2023-05-04T15:56:27.241Z,2.67
2023-05-04T16:05:48.561Z,3.78
2023-05-04T16:06:54.325Z,3.42
2023-05-04T16:10:42.935Z,1.90
2023-05-04T16:17:31.961Z,1.42
2023-05-04T16:28:03.749Z,2.78
2023-05-04T16:34:36.449Z,0.80
2023-05-04T16:38:29.091Z,0.93
2023-05-04T16:41:49.053Z,5.10
2023-05-04T16:46:02.349Z,1.40
2023-05-04T16:58:00.038Z,7.07
2023-05-04T17:02:07.984Z,3.13
2023-05-04T17:05:46.309Z,8.02
2023-05-04T17:09:20.490Z,7.88
2023-05-04T17:12:59.210Z,2.75
2023-05-04T17:19:19.167Z,3.03
2023-05-04T17:27:04.734Z,1.25
2023-05-04T17:30:29.880Z,5.03
2023-05-04T17:33:55.599Z,2.65
2023-05-04T17:37:24.387Z,2.42
2023-05-04T17:44:32.965Z,6.45
2023-05-04T17:48:05.102Z,6.03
2023-05-04T17:51:56.162Z,2.35
2023-05-04T17:55:36.599Z,1.85
2023-05-04T18:03:03.285Z,9.90
2023-05-04T18:10:57.763Z,7.53
2023-05-04T18:13:25.036Z,7.07
2023-05-04T18:17:00.790Z,7.40
2023-05-04T18:20:25.423Z,5.97
2023-05-04T18:26:28.912Z,9.07
2023-05-04T18:34:45.274Z,6.07
2023-05-04T18:38:42.970Z,7.05
2023-05-04T18:50:06.342Z,6.45
2023-05-04T18:54:34.194Z,10.35
2023-05-04T19:01:10.694Z,4.88
2023-05-04T19:09:03.020Z,4.45
2023-05-04T19:12:50.338Z,8.25
2023-05-04T19:24:31.129Z,5.28
2023-05-04T19:32:24.144Z,7.72
2023-05-04T19:35:52.922Z,6.18
2023-05-04T19:39:08.692Z,9.77
2023-05-04T19:46:31.126Z,7.55
2023-05-04T19:50:41.950Z,6.03
2023-05-04T19:54:02.399Z,6.60
2023-05-04T19:57:46.055Z,7.55
2023-05-04T20:01:01.242Z,9.45
2023-05-04T20:07:33.607Z,9.48
2023-05-04T20:09:11.821Z,9.32
2023-05-04T20:13:16.303Z,12.65
2023-05-04T20:24:14.028Z,11.57
2023-05-04T20:26:20.564Z,10.63
2023-05-04T20:35:23.901Z,13.60
2023-05-04T20:44:12.338Z,15.15
2023-05-04T20:48:27.606Z,14.52
2023-05-04T20:52:11.836Z,15.32
2023-05-04T20:55:26.940Z,16.95
2023-05-04T21:02:46.087Z,17.33
2023-05-04T21:06:24.370Z,22.40
2023-05-04T21:10:42.973Z,18.48
2023-05-04T21:14:09.655Z,19.27
2023-05-04T21:17:49.077Z,19.48
2023-05-04T21:21:23.457Z,18.63
2023-05-04T21:40:44.207Z,20.38
2023-05-04T21:47:06.597Z,23.67
2023-05-04T21:50:24.071Z,21.70
2023-05-04T21:57:58.767Z,15.73
2023-05-04T22:06:12.085Z,7.68
2023-05-04T22:09:37.702Z,4.93
2023-05-04T22:13:22.379Z,7.20
2023-05-04T22:16:34.217Z,6.75
2023-05-04T22:20:40.638Z,7.45
2023-05-04T22:32:32.201Z,8.70
2023-05-04T22:36:05.650Z,8.38
2023-05-04T22:42:27.159Z,9.82
2023-05-04T22:46:55.145Z,7.50
2023-05-04T22:50:24.687Z,8.98
2023-05-04T22:54:13.691Z,9.40
2023-05-04T22:58:39.324Z,6.43
2023-05-04T23:02:44.745Z,7.00
2023-05-04T23:06:57.965Z,8.70
2023-05-04T23:10:43.277Z,8.45
2023-05-04T23:17:45.820Z,9.15
2023-05-04T23:25:07.088Z,9.07
2023-05-04T23:28:50.705Z,8.65
2023-05-04T23:32:50.334Z,12.68
2023-05-04T23:40:41.644Z,10.55
2023-05-04T23:44:16.771Z,12.77
2023-05-04T23:48:10.624Z,10.10
2023-05-04T23:52:26.960Z,10.48
2023-05-04T23:58:01.239Z,14.10
